Aviation Digital Data Service (ADDS)

Output produced by METARs form (0706 UTC 23 October 2018)
found at http://aviationweather.gov/metar/data/
 
KDFW 230653Z 13003KT 10SM BKN120 14/09 A3016 RMK AO2 RAE23 SLP210 P0000 T01390094
KDFW 230520Z 2306/2412 11004KT P6SM BKN120 OVC250 
     TEMPO 2306/2310 -RA BKN100 
     FM231600 06007KT P6SM BKN110